Donnybrook, North Dakota
Current Conditions -  °F | °C
As of 1:58 AM on Friday 24 Oct 2014 (Local Time) from KMIB Reporting Station
Clear Clear  
Wind Chill: 51°   Ceiling: Unl
Heat Index: 51°   Visibility: 10mi
Dew Point: 35°   Wind: 12mph
Humidity: 55%   Direction: 250°WSW
Pressure: 29.73"   Gusts: NA
Location:  48.51°N, 101.89°W
Report Text: KMIB 240658Z AUTO 25010KT 10SM CLR 11/02 A2973 RMK AO2 SLP072 T01060019 $
Loading
Personal Weather Stations






























Interactive Weather Map
Tropical Storm Tracking
New forecast layout! Learn more

10-Day Weather Forecast

Advertisements
Track Severe Weather on mobile